sensor_id;sensor_type;location;lat;lon;timestamp;P1;durP1;ratioP1;P2;durP2;ratioP2
51913;SDS011;37940;53.002;6.930;2023-03-14T00:01:47;1837.95;;;999.90;;
51913;SDS011;37940;53.002;6.930;2023-03-14T00:04:13;1856.38;;;999.90;;
51913;SDS011;37940;53.002;6.930;2023-03-14T00:06:39;1843.47;;;999.90;;
51913;SDS011;37940;53.002;6.930;2023-03-14T00:09:05;1826.68;;;999.90;;
51913;SDS011;37940;53.002;6.930;2023-03-14T00:11:31;1785.43;;;999.90;;
51913;SDS011;37940;53.002;6.930;2023-03-14T00:13:57;1811.00;;;999.90;;
51913;SDS011;37940;53.002;6.930;2023-03-14T00:16:25;1870.50;;;999.90;;
51913;SDS011;37940;53.002;6.930;2023-03-14T00:18:51;1892.80;;;999.90;;
51913;SDS011;37940;53.002;6.930;2023-03-14T00:21:17;1849.10;;;999.90;;
51913;SDS011;37940;53.002;6.930;2023-03-14T00:23:43;1874.93;;;999.90;;
51913;SDS011;37940;53.002;6.930;2023-03-14T00:26:10;1861.97;;;999.90;;
51913;SDS011;37940;53.002;6.930;2023-03-14T00:28:38;1869.25;;;999.90;;
51913;SDS011;37940;53.002;6.930;2023-03-14T00:31:08;1871.38;;;999.90;;
51913;SDS011;37940;53.002;6.930;2023-03-14T00:33:35;1824.07;;;999.90;;
51913;SDS011;37940;53.002;6.930;2023-03-14T00:36:03;1819.75;;;999.90;;
51913;SDS011;37940;53.002;6.930;2023-03-14T00:38:30;1900.70;;;999.90;;
51913;SDS011;37940;53.002;6.930;2023-03-14T00:40:57;1890.13;;;999.90;;
51913;SDS011;37940;53.002;6.930;2023-03-14T00:43:23;1889.82;;;999.90;;
51913;SDS011;37940;53.002;6.930;2023-03-14T00:45:50;1912.90;;;999.90;;
51913;SDS011;37940;53.002;6.930;2023-03-14T00:48:17;1920.53;;;999.90;;
51913;SDS011;37940;53.002;6.930;2023-03-14T00:50:43;1891.00;;;999.90;;
51913;SDS011;37940;53.002;6.930;2023-03-14T00:53:09;1888.47;;;999.90;;
51913;SDS011;37940;53.002;6.930;2023-03-14T00:55:39;1799.03;;;999.90;;
51913;SDS011;37940;53.002;6.930;2023-03-14T00:58:05;1815.53;;;999.90;;
51913;SDS011;37940;53.002;6.930;2023-03-14T01:00:32;1811.88;;;999.90;;
51913;SDS011;37940;53.002;6.930;2023-03-14T01:02:58;1812.65;;;999.90;;
51913;SDS011;37940;53.002;6.930;2023-03-14T01:05:24;1709.53;;;999.90;;
51913;SDS011;37940;53.002;6.930;2023-03-14T01:07:49;1773.32;;;999.90;;
51913;SDS011;37940;53.002;6.930;2023-03-14T01:10:15;1794.35;;;999.90;;
51913;SDS011;37940;53.002;6.930;2023-03-14T01:12:41;1769.15;;;999.90;;
51913;SDS011;37940;53.002;6.930;2023-03-14T01:15:07;1784.68;;;999.90;;
51913;SDS011;37940;53.002;6.930;2023-03-14T01:17:33;1837.97;;;999.90;;
51913;SDS011;37940;53.002;6.930;2023-03-14T01:20:00;1846.47;;;999.90;;
51913;SDS011;37940;53.002;6.930;2023-03-14T01:22:26;1857.10;;;999.90;;
51913;SDS011;37940;53.002;6.930;2023-03-14T01:24:52;1855.05;;;999.90;;
51913;SDS011;37940;53.002;6.930;2023-03-14T01:27:17;1866.20;;;999.90;;
51913;SDS011;37940;53.002;6.930;2023-03-14T01:29:43;1790.05;;;999.90;;
51913;SDS011;37940;53.002;6.930;2023-03-14T01:32:09;1821.82;;;999.90;;
51913;SDS011;37940;53.002;6.930;2023-03-14T01:34:34;1837.07;;;999.90;;
51913;SDS011;37940;53.002;6.930;2023-03-14T01:37:00;1879.05;;;999.90;;
51913;SDS011;37940;53.002;6.930;2023-03-14T01:39:26;1890.47;;;999.90;;
51913;SDS011;37940;53.002;6.930;2023-03-14T01:41:53;1820.57;;;999.90;;
51913;SDS011;37940;53.002;6.930;2023-03-14T01:44:19;1804.47;;;999.90;;
51913;SDS011;37940;53.002;6.930;2023-03-14T01:46:45;1778.72;;;999.90;;
51913;SDS011;37940;53.002;6.930;2023-03-14T01:49:17;1857.80;;;999.90;;
51913;SDS011;37940;53.002;6.930;2023-03-14T01:51:53;1767.60;;;999.90;;
51913;SDS011;37940;53.002;6.930;2023-03-14T01:59:54;1862.60;;;999.90;;
51913;SDS011;37940;53.002;6.930;2023-03-14T02:02:28;1817.22;;;999.90;;
51913;SDS011;37940;53.002;6.930;2023-03-14T02:04:55;1783.35;;;999.90;;
51913;SDS011;37940;53.002;6.930;2023-03-14T02:07:38;1828.63;;;999.90;;
51913;SDS011;37940;53.002;6.930;2023-03-14T02:10:14;1845.30;;;999.90;;
51913;SDS011;37940;53.002;6.930;2023-03-14T02:12:44;1708.32;;;999.90;;
51913;SDS011;37940;53.002;6.930;2023-03-14T02:15:11;1795.63;;;999.90;;
51913;SDS011;37940;53.002;6.930;2023-03-14T02:17:37;1539.97;;;999.90;;
51913;SDS011;37940;53.002;6.930;2023-03-14T02:20:10;1486.07;;;999.90;;
51913;SDS011;37940;53.002;6.930;2023-03-14T02:22:46;1560.75;;;999.90;;
51913;SDS011;37940;53.002;6.930;2023-03-14T02:27:46;1517.55;;;999.90;;
51913;SDS011;37940;53.002;6.930;2023-03-14T02:30:18;1560.25;;;999.90;;
51913;SDS011;37940;53.002;6.930;2023-03-14T02:32:48;1551.30;;;999.90;;
51913;SDS011;37940;53.002;6.930;2023-03-14T02:35:21;1816.20;;;999.90;;
51913;SDS011;37940;53.002;6.930;2023-03-14T02:40:19;1832.15;;;999.90;;
51913;SDS011;37940;53.002;6.930;2023-03-14T02:42:44;1835.82;;;999.90;;
51913;SDS011;37940;53.002;6.930;2023-03-14T02:47:37;1805.75;;;999.90;;
51913;SDS011;37940;53.002;6.930;2023-03-14T02:50:11;1830.28;;;999.90;;
51913;SDS011;37940;53.002;6.930;2023-03-14T02:52:39;1781.22;;;999.90;;
51913;SDS011;37940;53.002;6.930;2023-03-14T02:55:05;1766.85;;;999.90;;
51913;SDS011;37940;53.002;6.930;2023-03-14T02:57:31;1797.50;;;999.90;;
51913;SDS011;37940;53.002;6.930;2023-03-14T03:00:00;1795.97;;;999.90;;
51913;SDS011;37940;53.002;6.930;2023-03-14T03:02:29;1735.35;;;999.90;;
51913;SDS011;37940;53.002;6.930;2023-03-14T03:04:55;1708.68;;;999.90;;
51913;SDS011;37940;53.002;6.930;2023-03-14T03:07:21;1788.20;;;999.90;;
51913;SDS011;37940;53.002;6.930;2023-03-14T03:09:47;1772.50;;;999.90;;
51913;SDS011;37940;53.002;6.930;2023-03-14T03:12:13;1844.55;;;999.90;;
51913;SDS011;37940;53.002;6.930;2023-03-14T03:14:39;1901.80;;;999.90;;
51913;SDS011;37940;53.002;6.930;2023-03-14T03:17:04;1891.32;;;999.90;;
51913;SDS011;37940;53.002;6.930;2023-03-14T03:19:31;1871.78;;;999.90;;
51913;SDS011;37940;53.002;6.930;2023-03-14T03:21:57;1830.50;;;999.90;;
51913;SDS011;37940;53.002;6.930;2023-03-14T03:24:23;1867.65;;;999.90;;
51913;SDS011;37940;53.002;6.930;2023-03-14T03:26:49;1911.90;;;999.90;;
51913;SDS011;37940;53.002;6.930;2023-03-14T03:29:15;1891.40;;;999.90;;
51913;SDS011;37940;53.002;6.930;2023-03-14T03:31:41;1842.07;;;999.90;;
51913;SDS011;37940;53.002;6.930;2023-03-14T03:34:07;1804.20;;;999.90;;
51913;SDS011;37940;53.002;6.930;2023-03-14T03:36:33;1849.03;;;999.90;;
51913;SDS011;37940;53.002;6.930;2023-03-14T03:38:59;1860.88;;;999.90;;
51913;SDS011;37940;53.002;6.930;2023-03-14T03:41:25;1859.38;;;999.90;;
51913;SDS011;37940;53.002;6.930;2023-03-14T03:43:50;1823.68;;;999.90;;
51913;SDS011;37940;53.002;6.930;2023-03-14T03:46:16;1825.57;;;999.90;;
51913;SDS011;37940;53.002;6.930;2023-03-14T03:48:42;1824.28;;;999.90;;
51913;SDS011;37940;53.002;6.930;2023-03-14T03:51:11;1875.68;;;999.90;;
51913;SDS011;37940;53.002;6.930;2023-03-14T03:53:38;1869.50;;;999.90;;
51913;SDS011;37940;53.002;6.930;2023-03-14T03:56:04;1854.78;;;999.90;;
51913;SDS011;37940;53.002;6.930;2023-03-14T03:58:30;1860.47;;;999.90;;
51913;SDS011;37940;53.002;6.930;2023-03-14T04:00:56;1863.13;;;999.90;;
51913;SDS011;37940;53.002;6.930;2023-03-14T04:03:22;1848.53;;;999.90;;
51913;SDS011;37940;53.002;6.930;2023-03-14T04:05:57;1863.78;;;999.90;;
51913;SDS011;37940;53.002;6.930;2023-03-14T04:08:33;1883.93;;;999.90;;
51913;SDS011;37940;53.002;6.930;2023-03-14T04:11:00;1859.45;;;999.90;;
51913;SDS011;37940;53.002;6.930;2023-03-14T04:13:26;1897.25;;;999.90;;
51913;SDS011;37940;53.002;6.930;2023-03-14T04:15:53;1895.68;;;999.90;;
51913;SDS011;37940;53.002;6.930;2023-03-14T04:18:19;1862.90;;;999.90;;
51913;SDS011;37940;53.002;6.930;2023-03-14T04:20:49;1861.32;;;999.90;;
51913;SDS011;37940;53.002;6.930;2023-03-14T04:23:16;1885.93;;;999.90;;
51913;SDS011;37940;53.002;6.930;2023-03-14T04:25:42;1888.72;;;999.90;;
51913;SDS011;37940;53.002;6.930;2023-03-14T04:28:08;1884.20;;;999.90;;
51913;SDS011;37940;53.002;6.930;2023-03-14T04:30:33;1852.72;;;999.90;;
51913;SDS011;37940;53.002;6.930;2023-03-14T04:32:59;1825.63;;;999.90;;
51913;SDS011;37940;53.002;6.930;2023-03-14T04:35:25;1827.28;;;999.90;;
51913;SDS011;37940;53.002;6.930;2023-03-14T04:37:50;1852.80;;;999.90;;
51913;SDS011;37940;53.002;6.930;2023-03-14T04:40:16;1724.78;;;999.90;;
51913;SDS011;37940;53.002;6.930;2023-03-14T04:42:43;1833.20;;;999.90;;
51913;SDS011;37940;53.002;6.930;2023-03-14T04:45:09;1868.70;;;999.90;;
51913;SDS011;37940;53.002;6.930;2023-03-14T04:47:35;1809.80;;;999.90;;
51913;SDS011;37940;53.002;6.930;2023-03-14T04:50:00;1828.05;;;999.90;;
51913;SDS011;37940;53.002;6.930;2023-03-14T04:52:26;1885.30;;;999.90;;
51913;SDS011;37940;53.002;6.930;2023-03-14T04:54:52;1891.40;;;999.90;;
51913;SDS011;37940;53.002;6.930;2023-03-14T04:57:18;1904.00;;;999.90;;
51913;SDS011;37940;53.002;6.930;2023-03-14T04:59:44;1902.85;;;999.90;;
51913;SDS011;37940;53.002;6.930;2023-03-14T05:02:09;1877.30;;;999.90;;
51913;SDS011;37940;53.002;6.930;2023-03-14T05:04:35;1884.60;;;999.90;;
51913;SDS011;37940;53.002;6.930;2023-03-14T05:07:01;1916.85;;;999.90;;
51913;SDS011;37940;53.002;6.930;2023-03-14T05:09:27;1916.63;;;999.90;;
51913;SDS011;37940;53.002;6.930;2023-03-14T05:11:52;1720.18;;;999.90;;
51913;SDS011;37940;53.002;6.930;2023-03-14T05:14:18;1735.60;;;999.90;;
51913;SDS011;37940;53.002;6.930;2023-03-14T05:16:44;1773.70;;;999.90;;
51913;SDS011;37940;53.002;6.930;2023-03-14T05:19:10;1911.90;;;999.90;;
51913;SDS011;37940;53.002;6.930;2023-03-14T05:21:36;1881.00;;;999.90;;
51913;SDS011;37940;53.002;6.930;2023-03-14T05:24:02;1844.68;;;999.90;;
51913;SDS011;37940;53.002;6.930;2023-03-14T05:26:28;1788.95;;;999.90;;
51913;SDS011;37940;53.002;6.930;2023-03-14T05:28:54;1791.38;;;999.90;;
51913;SDS011;37940;53.002;6.930;2023-03-14T05:31:19;1906.38;;;999.90;;
51913;SDS011;37940;53.002;6.930;2023-03-14T05:33:45;1913.55;;;999.90;;
51913;SDS011;37940;53.002;6.930;2023-03-14T05:36:11;1893.13;;;999.90;;
51913;SDS011;37940;53.002;6.930;2023-03-14T05:38:37;1907.68;;;999.90;;
51913;SDS011;37940;53.002;6.930;2023-03-14T05:41:02;1852.13;;;999.90;;
51913;SDS011;37940;53.002;6.930;2023-03-14T05:43:28;1896.07;;;999.90;;
51913;SDS011;37940;53.002;6.930;2023-03-14T05:45:54;1904.50;;;999.90;;
51913;SDS011;37940;53.002;6.930;2023-03-14T05:48:20;1864.20;;;999.90;;
51913;SDS011;37940;53.002;6.930;2023-03-14T05:50:46;1787.82;;;999.90;;
51913;SDS011;37940;53.002;6.930;2023-03-14T05:53:13;1884.43;;;999.90;;
51913;SDS011;37940;53.002;6.930;2023-03-14T05:55:39;1726.85;;;999.90;;
51913;SDS011;37940;53.002;6.930;2023-03-14T05:58:05;1701.85;;;999.90;;
51913;SDS011;37940;53.002;6.930;2023-03-14T06:00:31;1692.10;;;999.90;;
51913;SDS011;37940;53.002;6.930;2023-03-14T06:02:57;1720.40;;;999.90;;
51913;SDS011;37940;53.002;6.930;2023-03-14T06:05:22;1714.22;;;999.90;;
51913;SDS011;37940;53.002;6.930;2023-03-14T06:07:48;1719.82;;;999.90;;
51913;SDS011;37940;53.002;6.930;2023-03-14T06:10:14;1678.60;;;999.90;;
51913;SDS011;37940;53.002;6.930;2023-03-14T06:12:40;1673.75;;;999.90;;
51913;SDS011;37940;53.002;6.930;2023-03-14T06:15:06;1677.78;;;999.90;;
51913;SDS011;37940;53.002;6.930;2023-03-14T06:17:32;1688.60;;;999.90;;
51913;SDS011;37940;53.002;6.930;2023-03-14T06:19:58;1671.63;;;999.90;;
51913;SDS011;37940;53.002;6.930;2023-03-14T06:22:23;1673.25;;;999.90;;
51913;SDS011;37940;53.002;6.930;2023-03-14T06:24:49;1678.05;;;999.90;;
51913;SDS011;37940;53.002;6.930;2023-03-14T06:27:15;1713.78;;;999.90;;
51913;SDS011;37940;53.002;6.930;2023-03-14T06:29:41;1686.63;;;999.90;;
51913;SDS011;37940;53.002;6.930;2023-03-14T06:32:06;1721.55;;;999.90;;
51913;SDS011;37940;53.002;6.930;2023-03-14T06:34:32;1722.38;;;999.90;;
51913;SDS011;37940;53.002;6.930;2023-03-14T06:36:58;1846.75;;;999.90;;
51913;SDS011;37940;53.002;6.930;2023-03-14T06:39:24;1837.20;;;999.90;;
51913;SDS011;37940;53.002;6.930;2023-03-14T06:41:50;1916.05;;;999.90;;
51913;SDS011;37940;53.002;6.930;2023-03-14T06:44:15;1867.97;;;999.90;;
51913;SDS011;37940;53.002;6.930;2023-03-14T06:46:41;1857.75;;;999.90;;
51913;SDS011;37940;53.002;6.930;2023-03-14T06:49:07;1830.57;;;999.90;;
51913;SDS011;37940;53.002;6.930;2023-03-14T06:51:32;1807.55;;;999.90;;
51913;SDS011;37940;53.002;6.930;2023-03-14T06:53:59;1838.63;;;999.90;;
51913;SDS011;37940;53.002;6.930;2023-03-14T06:56:24;1830.40;;;999.90;;
51913;SDS011;37940;53.002;6.930;2023-03-14T06:58:50;1831.45;;;999.90;;
51913;SDS011;37940;53.002;6.930;2023-03-14T07:01:26;1821.68;;;999.90;;
51913;SDS011;37940;53.002;6.930;2023-03-14T07:03:54;1801.18;;;999.90;;
51913;SDS011;37940;53.002;6.930;2023-03-14T07:06:20;1808.50;;;999.90;;
51913;SDS011;37940;53.002;6.930;2023-03-14T07:08:46;1793.82;;;999.90;;
51913;SDS011;37940;53.002;6.930;2023-03-14T07:11:12;1810.80;;;999.90;;
51913;SDS011;37940;53.002;6.930;2023-03-14T07:13:38;1791.07;;;999.90;;
51913;SDS011;37940;53.002;6.930;2023-03-14T07:16:04;1771.78;;;999.90;;
51913;SDS011;37940;53.002;6.930;2023-03-14T07:18:31;1762.75;;;999.90;;
51913;SDS011;37940;53.002;6.930;2023-03-14T07:20:57;1673.43;;;999.90;;
51913;SDS011;37940;53.002;6.930;2023-03-14T07:23:22;1690.28;;;999.90;;
51913;SDS011;37940;53.002;6.930;2023-03-14T07:25:48;1659.40;;;999.90;;
51913;SDS011;37940;53.002;6.930;2023-03-14T07:28:14;1671.97;;;999.90;;
51913;SDS011;37940;53.002;6.930;2023-03-14T07:30:39;1660.07;;;999.90;;
51913;SDS011;37940;53.002;6.930;2023-03-14T07:33:05;1665.63;;;999.90;;
51913;SDS011;37940;53.002;6.930;2023-03-14T07:35:31;1753.00;;;999.90;;
51913;SDS011;37940;53.002;6.930;2023-03-14T07:37:57;1812.75;;;999.90;;
51913;SDS011;37940;53.002;6.930;2023-03-14T07:40:22;1725.07;;;999.90;;
51913;SDS011;37940;53.002;6.930;2023-03-14T07:42:48;1590.10;;;999.90;;
51913;SDS011;37940;53.002;6.930;2023-03-14T07:45:14;1790.55;;;999.90;;
51913;SDS011;37940;53.002;6.930;2023-03-14T07:47:41;1828.47;;;999.90;;
51913;SDS011;37940;53.002;6.930;2023-03-14T07:50:07;1805.47;;;999.90;;
51913;SDS011;37940;53.002;6.930;2023-03-14T07:52:33;1617.13;;;999.90;;
51913;SDS011;37940;53.002;6.930;2023-03-14T07:54:59;1603.28;;;999.90;;
51913;SDS011;37940;53.002;6.930;2023-03-14T07:57:24;1752.80;;;999.90;;
51913;SDS011;37940;53.002;6.930;2023-03-14T07:59:50;1795.35;;;999.90;;
51913;SDS011;37940;53.002;6.930;2023-03-14T08:02:16;1799.35;;;999.90;;
51913;SDS011;37940;53.002;6.930;2023-03-14T08:04:47;1913.65;;;999.90;;
51913;SDS011;37940;53.002;6.930;2023-03-14T08:07:14;1864.32;;;999.90;;
51913;SDS011;37940;53.002;6.930;2023-03-14T08:09:39;1833.97;;;999.90;;
51913;SDS011;37940;53.002;6.930;2023-03-14T08:12:05;1705.38;;;979.58;;
51913;SDS011;37940;53.002;6.930;2023-03-14T08:14:31;1737.82;;;999.90;;
51913;SDS011;37940;53.002;6.930;2023-03-14T08:16:57;1621.68;;;986.60;;
51913;SDS011;37940;53.002;6.930;2023-03-14T08:19:23;1815.70;;;974.40;;
51913;SDS011;37940;53.002;6.930;2023-03-14T08:21:49;1828.40;;;999.90;;
51913;SDS011;37940;53.002;6.930;2023-03-14T08:24:15;1628.15;;;999.90;;
51913;SDS011;37940;53.002;6.930;2023-03-14T08:26:41;1864.38;;;891.05;;
51913;SDS011;37940;53.002;6.930;2023-03-14T08:29:07;1859.75;;;922.42;;
51913;SDS011;37940;53.002;6.930;2023-03-14T08:31:34;1895.45;;;876.55;;
51913;SDS011;37940;53.002;6.930;2023-03-14T08:34:00;1874.00;;;819.35;;
51913;SDS011;37940;53.002;6.930;2023-03-14T08:36:27;1788.47;;;999.90;;
51913;SDS011;37940;53.002;6.930;2023-03-14T08:38:53;1730.65;;;997.67;;
51913;SDS011;37940;53.002;6.930;2023-03-14T08:41:19;1790.47;;;999.90;;
51913;SDS011;37940;53.002;6.930;2023-03-14T08:43:45;1822.00;;;999.90;;
51913;SDS011;37940;53.002;6.930;2023-03-14T08:46:10;1710.38;;;999.90;;
51913;SDS011;37940;53.002;6.930;2023-03-14T08:48:36;1667.82;;;823.20;;
51913;SDS011;37940;53.002;6.930;2023-03-14T08:51:09;1757.43;;;855.10;;
51913;SDS011;37940;53.002;6.930;2023-03-14T08:53:37;1726.05;;;824.08;;
51913;SDS011;37940;53.002;6.930;2023-03-14T08:56:03;1697.95;;;850.70;;
51913;SDS011;37940;53.002;6.930;2023-03-14T08:58:31;1780.28;;;872.88;;
51913;SDS011;37940;53.002;6.930;2023-03-14T09:01:01;1728.32;;;875.85;;
51913;SDS011;37940;53.002;6.930;2023-03-14T09:03:27;1560.35;;;965.95;;
51913;SDS011;37940;53.002;6.930;2023-03-14T09:05:53;1606.75;;;911.88;;
51913;SDS011;37940;53.002;6.930;2023-03-14T09:08:19;1602.72;;;921.17;;
51913;SDS011;37940;53.002;6.930;2023-03-14T09:10:47;1627.53;;;932.60;;
51913;SDS011;37940;53.002;6.930;2023-03-14T09:13:12;1502.47;;;978.38;;
51913;SDS011;37940;53.002;6.930;2023-03-14T09:15:38;1575.13;;;975.45;;
51913;SDS011;37940;53.002;6.930;2023-03-14T09:18:04;1601.65;;;979.50;;
51913;SDS011;37940;53.002;6.930;2023-03-14T09:20:30;1595.45;;;974.17;;
51913;SDS011;37940;53.002;6.930;2023-03-14T09:22:56;1584.10;;;992.13;;
51913;SDS011;37940;53.002;6.930;2023-03-14T09:25:21;1671.25;;;999.90;;
51913;SDS011;37940;53.002;6.930;2023-03-14T09:27:47;1624.65;;;999.90;;
51913;SDS011;37940;53.002;6.930;2023-03-14T09:30:13;1550.03;;;999.90;;
51913;SDS011;37940;53.002;6.930;2023-03-14T09:32:39;1555.40;;;998.28;;
51913;SDS011;37940;53.002;6.930;2023-03-14T09:35:04;1619.75;;;999.90;;
51913;SDS011;37940;53.002;6.930;2023-03-14T09:37:30;1663.32;;;999.90;;
51913;SDS011;37940;53.002;6.930;2023-03-14T09:39:56;1634.53;;;999.90;;
51913;SDS011;37940;53.002;6.930;2023-03-14T09:42:23;1758.90;;;989.88;;
51913;SDS011;37940;53.002;6.930;2023-03-14T09:44:56;1705.38;;;983.63;;
51913;SDS011;37940;53.002;6.930;2023-03-14T09:47:25;1692.85;;;999.90;;
51913;SDS011;37940;53.002;6.930;2023-03-14T09:49:52;1636.18;;;999.90;;
51913;SDS011;37940;53.002;6.930;2023-03-14T09:52:22;1698.45;;;999.90;;
51913;SDS011;37940;53.002;6.930;2023-03-14T09:54:52;1602.05;;;999.90;;
51913;SDS011;37940;53.002;6.930;2023-03-14T09:57:27;1719.70;;;999.90;;
51913;SDS011;37940;53.002;6.930;2023-03-14T09:59:54;1824.15;;;999.90;;
51913;SDS011;37940;53.002;6.930;2023-03-14T10:02:26;1724.10;;;999.90;;
51913;SDS011;37940;53.002;6.930;2023-03-14T10:04:58;1721.60;;;999.90;;
51913;SDS011;37940;53.002;6.930;2023-03-14T10:07:28;1792.40;;;999.90;;
51913;SDS011;37940;53.002;6.930;2023-03-14T10:09:55;1766.70;;;999.90;;
51913;SDS011;37940;53.002;6.930;2023-03-14T10:12:32;1685.18;;;999.90;;
51913;SDS011;37940;53.002;6.930;2023-03-14T10:15:02;1725.97;;;999.90;;
51913;SDS011;37940;53.002;6.930;2023-03-14T10:17:37;1760.10;;;999.90;;
51913;SDS011;37940;53.002;6.930;2023-03-14T10:20:25;1734.55;;;999.90;;
51913;SDS011;37940;53.002;6.930;2023-03-14T10:22:57;1818.88;;;999.90;;
51913;SDS011;37940;53.002;6.930;2023-03-14T10:25:29;1864.28;;;999.90;;
51913;SDS011;37940;53.002;6.930;2023-03-14T10:27:59;1950.70;;;999.90;;
51913;SDS011;37940;53.002;6.930;2023-03-14T10:30:34;1958.72;;;999.90;;
51913;SDS011;37940;53.002;6.930;2023-03-14T10:33:26;1913.20;;;999.90;;
51913;SDS011;37940;53.002;6.930;2023-03-14T10:35:57;1944.07;;;999.90;;
51913;SDS011;37940;53.002;6.930;2023-03-14T10:38:30;1948.32;;;999.90;;
51913;SDS011;37940;53.002;6.930;2023-03-14T10:40:57;1948.18;;;999.90;;
51913;SDS011;37940;53.002;6.930;2023-03-14T10:43:30;1839.20;;;999.90;;
51913;SDS011;37940;53.002;6.930;2023-03-14T10:45:59;1778.10;;;999.90;;
51913;SDS011;37940;53.002;6.930;2023-03-14T10:48:39;1884.07;;;999.90;;
51913;SDS011;37940;53.002;6.930;2023-03-14T10:56:14;1805.72;;;999.90;;
51913;SDS011;37940;53.002;6.930;2023-03-14T10:58:43;1816.57;;;999.90;;
51913;SDS011;37940;53.002;6.930;2023-03-14T11:01:32;1806.65;;;999.90;;
51913;SDS011;37940;53.002;6.930;2023-03-14T11:23:56;1829.55;;;999.90;;
51913;SDS011;37940;53.002;6.930;2023-03-14T11:26:42;1942.60;;;999.90;;
51913;SDS011;37940;53.002;6.930;2023-03-14T11:31:45;1922.47;;;999.90;;
51913;SDS011;37940;53.002;6.930;2023-03-14T11:34:16;1873.97;;;999.90;;
51913;SDS011;37940;53.002;6.930;2023-03-14T11:36:51;1889.63;;;999.90;;
51913;SDS011;37940;53.002;6.930;2023-03-14T11:39:38;1900.93;;;999.90;;
51913;SDS011;37940;53.002;6.930;2023-03-14T11:42:08;1856.68;;;999.90;;
51913;SDS011;37940;53.002;6.930;2023-03-14T11:44:38;1832.32;;;999.90;;
51913;SDS011;37940;53.002;6.930;2023-03-14T11:49:37;1868.90;;;999.90;;
51913;SDS011;37940;53.002;6.930;2023-03-14T11:52:09;1845.57;;;999.90;;
51913;SDS011;37940;53.002;6.930;2023-03-14T11:54:50;1873.75;;;999.90;;
51913;SDS011;37940;53.002;6.930;2023-03-14T11:57:20;1906.50;;;999.90;;
51913;SDS011;37940;53.002;6.930;2023-03-14T12:02:51;1757.72;;;999.90;;
51913;SDS011;37940;53.002;6.930;2023-03-14T12:10:37;1764.53;;;999.90;;
51913;SDS011;37940;53.002;6.930;2023-03-14T12:13:11;1749.05;;;999.90;;
51913;SDS011;37940;53.002;6.930;2023-03-14T12:15:49;1735.50;;;999.90;;
51913;SDS011;37940;53.002;6.930;2023-03-14T12:20:53;1707.63;;;999.90;;
51913;SDS011;37940;53.002;6.930;2023-03-14T12:23:25;1733.88;;;999.90;;
51913;SDS011;37940;53.002;6.930;2023-03-14T12:26:08;1722.45;;;999.90;;
51913;SDS011;37940;53.002;6.930;2023-03-14T12:28:38;1784.38;;;999.90;;
51913;SDS011;37940;53.002;6.930;2023-03-14T12:44:43;1708.95;;;999.90;;
51913;SDS011;37940;53.002;6.930;2023-03-14T12:49:45;1747.05;;;999.90;;
51913;SDS011;37940;53.002;6.930;2023-03-14T12:52:20;1714.90;;;999.90;;
51913;SDS011;37940;53.002;6.930;2023-03-14T12:55:10;1770.00;;;999.90;;
51913;SDS011;37940;53.002;6.930;2023-03-14T12:57:58;1678.43;;;999.90;;
51913;SDS011;37940;53.002;6.930;2023-03-14T13:00:51;1776.50;;;999.90;;
51913;SDS011;37940;53.002;6.930;2023-03-14T13:03:22;1720.50;;;999.90;;
51913;SDS011;37940;53.002;6.930;2023-03-14T13:06:02;1787.88;;;999.90;;
51913;SDS011;37940;53.002;6.930;2023-03-14T13:08:34;1652.03;;;999.90;;
51913;SDS011;37940;53.002;6.930;2023-03-14T13:13:31;1572.10;;;999.90;;
51913;SDS011;37940;53.002;6.930;2023-03-14T13:16:01;1655.20;;;999.90;;
51913;SDS011;37940;53.002;6.930;2023-03-14T13:18:37;1847.35;;;999.90;;
51913;SDS011;37940;53.002;6.930;2023-03-14T13:21:22;1826.75;;;999.90;;
51913;SDS011;37940;53.002;6.930;2023-03-14T13:23:59;1765.43;;;999.90;;
51913;SDS011;37940;53.002;6.930;2023-03-14T13:26:37;1581.13;;;999.90;;
51913;SDS011;37940;53.002;6.930;2023-03-14T13:31:53;1606.25;;;999.90;;
51913;SDS011;37940;53.002;6.930;2023-03-14T13:34:24;1665.78;;;999.90;;
51913;SDS011;37940;53.002;6.930;2023-03-14T13:36:59;1718.70;;;999.90;;
51913;SDS011;37940;53.002;6.930;2023-03-14T13:39:26;1762.20;;;999.90;;
51913;SDS011;37940;53.002;6.930;2023-03-14T13:41:55;1701.57;;;999.90;;
51913;SDS011;37940;53.002;6.930;2023-03-14T13:44:30;1644.07;;;999.90;;
51913;SDS011;37940;53.002;6.930;2023-03-14T13:47:04;1632.30;;;999.90;;
51913;SDS011;37940;53.002;6.930;2023-03-14T13:49:34;1668.40;;;999.90;;
51913;SDS011;37940;53.002;6.930;2023-03-14T13:52:03;1675.45;;;999.90;;
51913;SDS011;37940;53.002;6.930;2023-03-14T13:54:46;1653.10;;;999.90;;
51913;SDS011;37940;53.002;6.930;2023-03-14T13:57:11;1578.38;;;999.90;;
51913;SDS011;37940;53.002;6.930;2023-03-14T13:59:37;1684.25;;;999.90;;
51913;SDS011;37940;53.002;6.930;2023-03-14T14:02:04;1705.32;;;999.90;;
51913;SDS011;37940;53.002;6.930;2023-03-14T14:04:38;1704.57;;;999.90;;
51913;SDS011;37940;53.002;6.930;2023-03-14T14:07:08;1695.25;;;999.90;;
51913;SDS011;37940;53.002;6.930;2023-03-14T14:09:47;1595.60;;;999.90;;
51913;SDS011;37940;53.002;6.930;2023-03-14T14:12:16;1595.47;;;999.90;;
51913;SDS011;37940;53.002;6.930;2023-03-14T14:15:20;1590.25;;;999.90;;
51913;SDS011;37940;53.002;6.930;2023-03-14T14:17:48;1600.65;;;999.90;;
51913;SDS011;37940;53.002;6.930;2023-03-14T14:22:56;1630.82;;;999.90;;
51913;SDS011;37940;53.002;6.930;2023-03-14T14:25:23;1635.50;;;999.90;;
51913;SDS011;37940;53.002;6.930;2023-03-14T14:27:50;1619.43;;;999.90;;
51913;SDS011;37940;53.002;6.930;2023-03-14T14:32:46;1567.97;;;999.90;;
51913;SDS011;37940;53.002;6.930;2023-03-14T14:35:23;1560.82;;;999.90;;
51913;SDS011;37940;53.002;6.930;2023-03-14T14:37:52;1605.80;;;999.90;;
51913;SDS011;37940;53.002;6.930;2023-03-14T14:40:25;1641.30;;;999.90;;
51913;SDS011;37940;53.002;6.930;2023-03-14T14:43:02;1717.32;;;999.90;;
51913;SDS011;37940;53.002;6.930;2023-03-14T14:45:29;1702.07;;;999.90;;
51913;SDS011;37940;53.002;6.930;2023-03-14T14:48:17;1673.18;;;999.90;;
51913;SDS011;37940;53.002;6.930;2023-03-14T14:56:03;1701.25;;;999.90;;
51913;SDS011;37940;53.002;6.930;2023-03-14T14:58:36;1741.35;;;999.90;;
51913;SDS011;37940;53.002;6.930;2023-03-14T15:03:50;1698.43;;;999.90;;
51913;SDS011;37940;53.002;6.930;2023-03-14T15:06:17;1752.72;;;999.90;;
51913;SDS011;37940;53.002;6.930;2023-03-14T15:08:44;1691.45;;;999.90;;
51913;SDS011;37940;53.002;6.930;2023-03-14T15:11:22;1626.25;;;999.90;;
51913;SDS011;37940;53.002;6.930;2023-03-14T15:13:49;1603.78;;;999.90;;
51913;SDS011;37940;53.002;6.930;2023-03-14T15:16:17;1592.07;;;999.90;;
51913;SDS011;37940;53.002;6.930;2023-03-14T15:18:47;1582.05;;;999.90;;
51913;SDS011;37940;53.002;6.930;2023-03-14T15:21:20;1526.40;;;999.90;;